sensor_id;sensor_type;location;lat;lon;timestamp;P1;durP1;ratioP1;P2;durP2;ratioP2
19944;SDS011;10134;50.952;6.930;2023-09-12T00:01:29;8.73;;;5.10;;
19944;SDS011;10134;50.952;6.930;2023-09-12T00:03:59;7.50;;;4.90;;
19944;SDS011;10134;50.952;6.930;2023-09-12T00:06:29;7.60;;;5.10;;
19944;SDS011;10134;50.952;6.930;2023-09-12T00:08:58;6.97;;;4.97;;
19944;SDS011;10134;50.952;6.930;2023-09-12T00:11:26;6.53;;;4.28;;
19944;SDS011;10134;50.952;6.930;2023-09-12T00:13:55;7.75;;;4.78;;
19944;SDS011;10134;50.952;6.930;2023-09-12T00:16:24;10.38;;;5.00;;
19944;SDS011;10134;50.952;6.930;2023-09-12T00:18:52;6.65;;;4.50;;
19944;SDS011;10134;50.952;6.930;2023-09-12T00:21:21;6.55;;;4.63;;
19944;SDS011;10134;50.952;6.930;2023-09-12T00:23:51;7.35;;;4.20;;
19944;SDS011;10134;50.952;6.930;2023-09-12T00:26:20;8.70;;;5.10;;
19944;SDS011;10134;50.952;6.930;2023-09-12T00:28:50;6.22;;;4.07;;
19944;SDS011;10134;50.952;6.930;2023-09-12T00:31:18;8.13;;;4.40;;
19944;SDS011;10134;50.952;6.930;2023-09-12T00:33:47;9.02;;;4.78;;
19944;SDS011;10134;50.952;6.930;2023-09-12T00:36:16;9.50;;;5.75;;
19944;SDS011;10134;50.952;6.930;2023-09-12T00:38:45;9.18;;;5.05;;
19944;SDS011;10134;50.952;6.930;2023-09-12T00:41:14;10.02;;;5.20;;
19944;SDS011;10134;50.952;6.930;2023-09-12T00:43:43;7.45;;;4.50;;
19944;SDS011;10134;50.952;6.930;2023-09-12T00:46:12;9.43;;;5.55;;
19944;SDS011;10134;50.952;6.930;2023-09-12T00:48:46;7.60;;;4.88;;
19944;SDS011;10134;50.952;6.930;2023-09-12T00:51:15;12.23;;;5.90;;
19944;SDS011;10134;50.952;6.930;2023-09-12T00:53:45;9.20;;;6.07;;
19944;SDS011;10134;50.952;6.930;2023-09-12T00:56:14;11.10;;;5.68;;
19944;SDS011;10134;50.952;6.930;2023-09-12T00:58:43;8.27;;;4.80;;
19944;SDS011;10134;50.952;6.930;2023-09-12T01:01:13;8.77;;;5.82;;
19944;SDS011;10134;50.952;6.930;2023-09-12T01:03:41;7.97;;;5.05;;
19944;SDS011;10134;50.952;6.930;2023-09-12T01:06:10;7.43;;;5.43;;
19944;SDS011;10134;50.952;6.930;2023-09-12T01:08:40;7.00;;;5.10;;
19944;SDS011;10134;50.952;6.930;2023-09-12T01:11:09;10.52;;;5.75;;
19944;SDS011;10134;50.952;6.930;2023-09-12T01:13:39;8.57;;;5.50;;
19944;SDS011;10134;50.952;6.930;2023-09-12T01:16:08;10.93;;;6.80;;
19944;SDS011;10134;50.952;6.930;2023-09-12T01:18:36;11.65;;;6.47;;
19944;SDS011;10134;50.952;6.930;2023-09-12T01:21:15;9.32;;;5.57;;
19944;SDS011;10134;50.952;6.930;2023-09-12T01:24:19;9.50;;;6.60;;
19944;SDS011;10134;50.952;6.930;2023-09-12T01:27:10;8.27;;;5.50;;
19944;SDS011;10134;50.952;6.930;2023-09-12T01:29:53;9.25;;;5.75;;
19944;SDS011;10134;50.952;6.930;2023-09-12T01:32:24;10.93;;;6.95;;
19944;SDS011;10134;50.952;6.930;2023-09-12T01:34:54;13.50;;;6.00;;
19944;SDS011;10134;50.952;6.930;2023-09-12T01:37:23;10.88;;;7.28;;
19944;SDS011;10134;50.952;6.930;2023-09-12T01:39:51;11.95;;;6.88;;
19944;SDS011;10134;50.952;6.930;2023-09-12T01:42:21;10.23;;;6.28;;
19944;SDS011;10134;50.952;6.930;2023-09-12T01:44:54;11.30;;;7.68;;
19944;SDS011;10134;50.952;6.930;2023-09-12T01:47:24;12.38;;;7.00;;
19944;SDS011;10134;50.952;6.930;2023-09-12T01:49:55;14.63;;;8.02;;
19944;SDS011;10134;50.952;6.930;2023-09-12T01:52:25;10.70;;;6.55;;
19944;SDS011;10134;50.952;6.930;2023-09-12T01:54:54;10.88;;;7.03;;
19944;SDS011;10134;50.952;6.930;2023-09-12T01:57:25;9.85;;;7.10;;
19944;SDS011;10134;50.952;6.930;2023-09-12T01:59:54;10.55;;;7.40;;
19944;SDS011;10134;50.952;6.930;2023-09-12T02:02:22;11.88;;;7.10;;
19944;SDS011;10134;50.952;6.930;2023-09-12T02:04:52;9.10;;;6.32;;
19944;SDS011;10134;50.952;6.930;2023-09-12T02:07:38;13.48;;;6.75;;
19944;SDS011;10134;50.952;6.930;2023-09-12T02:10:09;12.77;;;6.97;;
19944;SDS011;10134;50.952;6.930;2023-09-12T02:12:39;13.32;;;7.45;;
19944;SDS011;10134;50.952;6.930;2023-09-12T02:15:08;10.75;;;7.40;;
19944;SDS011;10134;50.952;6.930;2023-09-12T02:17:38;11.50;;;6.55;;
19944;SDS011;10134;50.952;6.930;2023-09-12T02:20:08;11.18;;;7.03;;
19944;SDS011;10134;50.952;6.930;2023-09-12T02:22:38;13.20;;;7.30;;
19944;SDS011;10134;50.952;6.930;2023-09-12T02:25:07;11.38;;;6.93;;
19944;SDS011;10134;50.952;6.930;2023-09-12T02:27:36;11.07;;;7.35;;
19944;SDS011;10134;50.952;6.930;2023-09-12T02:30:07;14.00;;;8.00;;
19944;SDS011;10134;50.952;6.930;2023-09-12T02:32:36;10.70;;;7.50;;
19944;SDS011;10134;50.952;6.930;2023-09-12T02:35:05;13.00;;;8.25;;
19944;SDS011;10134;50.952;6.930;2023-09-12T02:37:34;14.05;;;8.57;;
19944;SDS011;10134;50.952;6.930;2023-09-12T02:40:03;12.75;;;8.27;;
19944;SDS011;10134;50.952;6.930;2023-09-12T02:42:33;13.85;;;7.97;;
19944;SDS011;10134;50.952;6.930;2023-09-12T02:45:02;15.23;;;9.45;;
19944;SDS011;10134;50.952;6.930;2023-09-12T02:47:34;15.50;;;8.73;;
19944;SDS011;10134;50.952;6.930;2023-09-12T02:50:02;16.13;;;8.40;;
19944;SDS011;10134;50.952;6.930;2023-09-12T02:52:32;15.70;;;9.57;;
19944;SDS011;10134;50.952;6.930;2023-09-12T02:55:00;13.77;;;8.05;;
19944;SDS011;10134;50.952;6.930;2023-09-12T02:57:29;12.80;;;8.02;;
19944;SDS011;10134;50.952;6.930;2023-09-12T02:59:58;15.75;;;8.30;;
19944;SDS011;10134;50.952;6.930;2023-09-12T03:02:27;16.05;;;8.73;;
19944;SDS011;10134;50.952;6.930;2023-09-12T03:04:58;10.75;;;7.47;;
19944;SDS011;10134;50.952;6.930;2023-09-12T03:07:29;14.13;;;6.57;;
19944;SDS011;10134;50.952;6.930;2023-09-12T03:09:59;11.20;;;5.93;;
19944;SDS011;10134;50.952;6.930;2023-09-12T03:12:28;11.88;;;6.80;;
19944;SDS011;10134;50.952;6.930;2023-09-12T03:14:57;8.13;;;6.47;;
19944;SDS011;10134;50.952;6.930;2023-09-12T03:17:27;10.20;;;6.60;;
19944;SDS011;10134;50.952;6.930;2023-09-12T03:19:58;12.38;;;6.22;;
19944;SDS011;10134;50.952;6.930;2023-09-12T03:22:27;12.57;;;7.38;;
19944;SDS011;10134;50.952;6.930;2023-09-12T03:24:56;10.13;;;7.53;;
19944;SDS011;10134;50.952;6.930;2023-09-12T03:27:25;11.38;;;7.05;;
19944;SDS011;10134;50.952;6.930;2023-09-12T03:29:54;12.00;;;8.00;;
19944;SDS011;10134;50.952;6.930;2023-09-12T03:32:23;13.80;;;7.63;;
19944;SDS011;10134;50.952;6.930;2023-09-12T03:34:51;12.68;;;7.80;;
19944;SDS011;10134;50.952;6.930;2023-09-12T03:37:22;15.93;;;8.27;;
19944;SDS011;10134;50.952;6.930;2023-09-12T03:39:54;11.60;;;6.97;;
19944;SDS011;10134;50.952;6.930;2023-09-12T03:42:23;11.15;;;7.65;;
19944;SDS011;10134;50.952;6.930;2023-09-12T03:45:04;10.95;;;6.97;;
19944;SDS011;10134;50.952;6.930;2023-09-12T03:47:33;12.52;;;6.50;;
19944;SDS011;10134;50.952;6.930;2023-09-12T03:50:02;10.25;;;7.68;;
19944;SDS011;10134;50.952;6.930;2023-09-12T03:52:33;10.60;;;7.18;;
19944;SDS011;10134;50.952;6.930;2023-09-12T03:55:02;11.25;;;7.07;;
19944;SDS011;10134;50.952;6.930;2023-09-12T03:57:31;10.43;;;6.57;;
19944;SDS011;10134;50.952;6.930;2023-09-12T04:00:00;18.38;;;7.15;;
19944;SDS011;10134;50.952;6.930;2023-09-12T04:02:39;10.07;;;6.95;;
19944;SDS011;10134;50.952;6.930;2023-09-12T04:05:08;10.43;;;6.00;;
19944;SDS011;10134;50.952;6.930;2023-09-12T04:07:39;10.30;;;6.15;;
19944;SDS011;10134;50.952;6.930;2023-09-12T04:10:08;11.43;;;5.65;;
19944;SDS011;10134;50.952;6.930;2023-09-12T04:12:37;9.45;;;6.40;;
19944;SDS011;10134;50.952;6.930;2023-09-12T04:15:06;9.40;;;5.72;;
19944;SDS011;10134;50.952;6.930;2023-09-12T04:17:36;8.82;;;6.10;;
19944;SDS011;10134;50.952;6.930;2023-09-12T04:20:05;10.07;;;6.00;;
19944;SDS011;10134;50.952;6.930;2023-09-12T04:22:34;9.98;;;5.63;;
19944;SDS011;10134;50.952;6.930;2023-09-12T04:25:05;8.25;;;5.63;;
19944;SDS011;10134;50.952;6.930;2023-09-12T04:27:34;6.35;;;5.47;;
19944;SDS011;10134;50.952;6.930;2023-09-12T04:30:04;9.60;;;5.68;;
19944;SDS011;10134;50.952;6.930;2023-09-12T04:32:33;9.18;;;5.55;;
19944;SDS011;10134;50.952;6.930;2023-09-12T04:35:02;7.30;;;5.47;;
19944;SDS011;10134;50.952;6.930;2023-09-12T04:37:32;7.30;;;5.78;;
19944;SDS011;10134;50.952;6.930;2023-09-12T04:40:00;11.50;;;5.88;;
19944;SDS011;10134;50.952;6.930;2023-09-12T04:42:33;7.90;;;5.63;;
19944;SDS011;10134;50.952;6.930;2023-09-12T04:45:02;8.45;;;5.82;;
19944;SDS011;10134;50.952;6.930;2023-09-12T04:47:32;13.35;;;6.40;;
19944;SDS011;10134;50.952;6.930;2023-09-12T04:50:00;7.38;;;5.47;;
19944;SDS011;10134;50.952;6.930;2023-09-12T04:52:29;7.35;;;5.75;;
19944;SDS011;10134;50.952;6.930;2023-09-12T04:55:00;10.13;;;5.97;;
19944;SDS011;10134;50.952;6.930;2023-09-12T04:57:30;9.48;;;5.40;;
19944;SDS011;10134;50.952;6.930;2023-09-12T05:00:01;11.07;;;6.07;;
19944;SDS011;10134;50.952;6.930;2023-09-12T05:02:32;6.45;;;4.78;;
19944;SDS011;10134;50.952;6.930;2023-09-12T05:05:02;7.85;;;5.88;;
19944;SDS011;10134;50.952;6.930;2023-09-12T05:07:32;8.60;;;4.80;;
19944;SDS011;10134;50.952;6.930;2023-09-12T05:10:01;9.38;;;5.90;;
19944;SDS011;10134;50.952;6.930;2023-09-12T05:12:30;8.38;;;5.25;;
19944;SDS011;10134;50.952;6.930;2023-09-12T05:14:59;9.20;;;4.93;;
19944;SDS011;10134;50.952;6.930;2023-09-12T05:17:30;6.00;;;4.20;;
19944;SDS011;10134;50.952;6.930;2023-09-12T05:19:59;6.22;;;4.80;;
19944;SDS011;10134;50.952;6.930;2023-09-12T05:22:28;7.18;;;4.65;;
19944;SDS011;10134;50.952;6.930;2023-09-12T05:24:56;6.18;;;4.65;;
19944;SDS011;10134;50.952;6.930;2023-09-12T05:27:25;8.82;;;5.32;;
19944;SDS011;10134;50.952;6.930;2023-09-12T05:29:54;10.57;;;5.93;;
19944;SDS011;10134;50.952;6.930;2023-09-12T05:32:24;10.15;;;5.60;;
19944;SDS011;10134;50.952;6.930;2023-09-12T05:34:53;8.13;;;5.35;;
19944;SDS011;10134;50.952;6.930;2023-09-12T05:37:42;8.35;;;5.78;;
19944;SDS011;10134;50.952;6.930;2023-09-12T05:40:11;11.52;;;5.25;;
19944;SDS011;10134;50.952;6.930;2023-09-12T05:42:39;6.85;;;5.00;;
19944;SDS011;10134;50.952;6.930;2023-09-12T05:45:08;8.02;;;5.75;;
19944;SDS011;10134;50.952;6.930;2023-09-12T05:47:39;10.02;;;5.72;;
19944;SDS011;10134;50.952;6.930;2023-09-12T05:50:08;8.80;;;4.70;;
19944;SDS011;10134;50.952;6.930;2023-09-12T05:52:38;6.93;;;4.78;;
19944;SDS011;10134;50.952;6.930;2023-09-12T05:55:10;8.70;;;5.28;;
19944;SDS011;10134;50.952;6.930;2023-09-12T05:57:39;9.25;;;4.85;;
19944;SDS011;10134;50.952;6.930;2023-09-12T06:00:08;5.93;;;4.88;;
19944;SDS011;10134;50.952;6.930;2023-09-12T06:02:41;12.25;;;8.18;;
19944;SDS011;10134;50.952;6.930;2023-09-12T06:05:10;10.27;;;6.47;;
19944;SDS011;10134;50.952;6.930;2023-09-12T06:07:38;11.13;;;6.20;;
19944;SDS011;10134;50.952;6.930;2023-09-12T06:10:08;8.85;;;5.30;;
19944;SDS011;10134;50.952;6.930;2023-09-12T06:12:37;6.60;;;5.07;;
19944;SDS011;10134;50.952;6.930;2023-09-12T06:15:06;6.70;;;4.90;;
19944;SDS011;10134;50.952;6.930;2023-09-12T06:17:36;12.43;;;4.53;;
19944;SDS011;10134;50.952;6.930;2023-09-12T06:20:07;12.63;;;5.53;;
19944;SDS011;10134;50.952;6.930;2023-09-12T06:22:36;9.27;;;4.78;;
19944;SDS011;10134;50.952;6.930;2023-09-12T06:25:05;7.50;;;5.57;;
19944;SDS011;10134;50.952;6.930;2023-09-12T06:27:34;8.70;;;5.90;;
19944;SDS011;10134;50.952;6.930;2023-09-12T06:30:04;10.82;;;7.05;;
19944;SDS011;10134;50.952;6.930;2023-09-12T06:32:33;14.10;;;8.13;;
19944;SDS011;10134;50.952;6.930;2023-09-12T06:35:06;14.77;;;8.57;;
19944;SDS011;10134;50.952;6.930;2023-09-12T06:37:37;11.05;;;7.32;;
19944;SDS011;10134;50.952;6.930;2023-09-12T06:40:07;14.95;;;8.07;;
19944;SDS011;10134;50.952;6.930;2023-09-12T06:42:36;14.43;;;8.50;;
19944;SDS011;10134;50.952;6.930;2023-09-12T06:45:05;15.68;;;10.13;;
19944;SDS011;10134;50.952;6.930;2023-09-12T06:47:35;15.88;;;8.38;;
19944;SDS011;10134;50.952;6.930;2023-09-12T06:50:04;14.80;;;8.68;;
19944;SDS011;10134;50.952;6.930;2023-09-12T06:52:40;17.83;;;10.02;;
19944;SDS011;10134;50.952;6.930;2023-09-12T06:55:09;13.48;;;8.90;;
19944;SDS011;10134;50.952;6.930;2023-09-12T06:57:38;18.38;;;9.32;;
19944;SDS011;10134;50.952;6.930;2023-09-12T07:00:16;13.57;;;7.72;;
19944;SDS011;10134;50.952;6.930;2023-09-12T07:02:46;15.30;;;8.65;;
19944;SDS011;10134;50.952;6.930;2023-09-12T07:05:16;12.88;;;8.27;;
19944;SDS011;10134;50.952;6.930;2023-09-12T07:07:45;13.18;;;8.18;;
19944;SDS011;10134;50.952;6.930;2023-09-12T07:10:14;14.43;;;9.00;;
19944;SDS011;10134;50.952;6.930;2023-09-12T07:12:52;14.32;;;8.60;;
19944;SDS011;10134;50.952;6.930;2023-09-12T07:15:21;11.75;;;7.85;;
19944;SDS011;10134;50.952;6.930;2023-09-12T07:17:50;13.32;;;7.63;;
19944;SDS011;10134;50.952;6.930;2023-09-12T07:20:20;15.93;;;9.15;;
19944;SDS011;10134;50.952;6.930;2023-09-12T07:22:49;14.75;;;8.27;;
19944;SDS011;10134;50.952;6.930;2023-09-12T07:25:18;13.25;;;7.85;;
19944;SDS011;10134;50.952;6.930;2023-09-12T07:27:47;16.33;;;8.57;;
19944;SDS011;10134;50.952;6.930;2023-09-12T07:30:16;13.57;;;7.75;;
19944;SDS011;10134;50.952;6.930;2023-09-12T07:32:46;10.95;;;7.47;;
19944;SDS011;10134;50.952;6.930;2023-09-12T07:35:15;10.55;;;7.30;;
19944;SDS011;10134;50.952;6.930;2023-09-12T07:37:45;8.77;;;6.75;;
19944;SDS011;10134;50.952;6.930;2023-09-12T07:40:14;13.30;;;7.13;;
19944;SDS011;10134;50.952;6.930;2023-09-12T07:42:43;7.47;;;6.22;;
19944;SDS011;10134;50.952;6.930;2023-09-12T07:45:11;10.07;;;6.72;;
19944;SDS011;10134;50.952;6.930;2023-09-12T07:47:40;10.25;;;6.45;;
19944;SDS011;10134;50.952;6.930;2023-09-12T07:50:09;9.10;;;5.85;;
19944;SDS011;10134;50.952;6.930;2023-09-12T07:52:38;8.10;;;6.20;;
19944;SDS011;10134;50.952;6.930;2023-09-12T07:55:08;9.13;;;6.35;;
19944;SDS011;10134;50.952;6.930;2023-09-12T07:57:38;7.97;;;5.80;;
19944;SDS011;10134;50.952;6.930;2023-09-12T08:00:10;10.23;;;5.65;;
19944;SDS011;10134;50.952;6.930;2023-09-12T08:02:40;10.80;;;6.03;;
19944;SDS011;10134;50.952;6.930;2023-09-12T08:05:09;10.10;;;5.70;;
19944;SDS011;10134;50.952;6.930;2023-09-12T08:07:38;8.98;;;5.47;;
19944;SDS011;10134;50.952;6.930;2023-09-12T08:10:08;8.13;;;4.80;;
19944;SDS011;10134;50.952;6.930;2023-09-12T08:12:37;6.13;;;4.78;;
19944;SDS011;10134;50.952;6.930;2023-09-12T08:15:08;7.28;;;5.03;;
19944;SDS011;10134;50.952;6.930;2023-09-12T08:17:38;11.20;;;5.40;;
19944;SDS011;10134;50.952;6.930;2023-09-12T08:20:07;5.97;;;4.72;;
19944;SDS011;10134;50.952;6.930;2023-09-12T08:22:37;7.30;;;5.15;;
19944;SDS011;10134;50.952;6.930;2023-09-12T08:25:06;6.88;;;4.70;;
19944;SDS011;10134;50.952;6.930;2023-09-12T08:27:36;8.07;;;4.25;;
19944;SDS011;10134;50.952;6.930;2023-09-12T08:30:05;8.88;;;4.80;;
19944;SDS011;10134;50.952;6.930;2023-09-12T08:32:35;17.27;;;5.07;;
19944;SDS011;10134;50.952;6.930;2023-09-12T08:35:06;6.20;;;4.43;;
19944;SDS011;10134;50.952;6.930;2023-09-12T08:37:35;7.30;;;5.07;;
19944;SDS011;10134;50.952;6.930;2023-09-12T08:40:04;5.95;;;4.57;;
19944;SDS011;10134;50.952;6.930;2023-09-12T08:42:39;7.38;;;4.97;;
19944;SDS011;10134;50.952;6.930;2023-09-12T08:45:11;10.18;;;5.95;;
19944;SDS011;10134;50.952;6.930;2023-09-12T08:47:42;5.90;;;4.93;;
19944;SDS011;10134;50.952;6.930;2023-09-12T08:50:13;6.30;;;4.88;;
19944;SDS011;10134;50.952;6.930;2023-09-12T08:52:44;6.97;;;4.75;;
19944;SDS011;10134;50.952;6.930;2023-09-12T08:55:30;7.95;;;5.45;;
19944;SDS011;10134;50.952;6.930;2023-09-12T08:58:02;9.80;;;6.00;;
19944;SDS011;10134;50.952;6.930;2023-09-12T09:00:31;9.70;;;5.43;;
19944;SDS011;10134;50.952;6.930;2023-09-12T09:03:01;8.75;;;5.22;;
19944;SDS011;10134;50.952;6.930;2023-09-12T09:05:30;7.22;;;5.68;;
19944;SDS011;10134;50.952;6.930;2023-09-12T09:08:00;8.75;;;5.00;;
19944;SDS011;10134;50.952;6.930;2023-09-12T09:10:30;7.40;;;4.28;;
19944;SDS011;10134;50.952;6.930;2023-09-12T09:13:18;9.10;;;4.95;;
19944;SDS011;10134;50.952;6.930;2023-09-12T09:15:46;6.55;;;5.22;;
19944;SDS011;10134;50.952;6.930;2023-09-12T09:18:15;8.13;;;4.20;;
19944;SDS011;10134;50.952;6.930;2023-09-12T09:20:44;8.82;;;5.28;;
19944;SDS011;10134;50.952;6.930;2023-09-12T09:23:18;8.35;;;4.43;;
19944;SDS011;10134;50.952;6.930;2023-09-12T09:25:51;6.63;;;4.68;;
19944;SDS011;10134;50.952;6.930;2023-09-12T09:28:22;7.55;;;5.57;;
19944;SDS011;10134;50.952;6.930;2023-09-12T09:30:51;13.40;;;5.85;;
19944;SDS011;10134;50.952;6.930;2023-09-12T09:33:22;11.93;;;5.95;;
19944;SDS011;10134;50.952;6.930;2023-09-12T09:35:52;6.80;;;4.97;;
19944;SDS011;10134;50.952;6.930;2023-09-12T09:38:31;7.30;;;4.80;;
19944;SDS011;10134;50.952;6.930;2023-09-12T09:40:59;7.03;;;4.70;;
19944;SDS011;10134;50.952;6.930;2023-09-12T09:43:30;5.60;;;3.72;;
19944;SDS011;10134;50.952;6.930;2023-09-12T09:45:58;10.68;;;5.15;;
19944;SDS011;10134;50.952;6.930;2023-09-12T09:48:27;6.45;;;4.47;;
19944;SDS011;10134;50.952;6.930;2023-09-12T09:51:02;8.18;;;4.43;;
19944;SDS011;10134;50.952;6.930;2023-09-12T09:53:31;6.90;;;4.20;;
19944;SDS011;10134;50.952;6.930;2023-09-12T09:56:09;5.43;;;3.90;;
19944;SDS011;10134;50.952;6.930;2023-09-12T09:58:47;6.10;;;4.65;;
19944;SDS011;10134;50.952;6.930;2023-09-12T10:01:17;7.15;;;4.35;;
19944;SDS011;10134;50.952;6.930;2023-09-12T10:03:47;6.78;;;3.88;;
19944;SDS011;10134;50.952;6.930;2023-09-12T10:06:18;6.60;;;4.50;;
19944;SDS011;10134;50.952;6.930;2023-09-12T10:08:49;6.68;;;4.05;;
19944;SDS011;10134;50.952;6.930;2023-09-12T10:11:22;7.30;;;4.32;;
19944;SDS011;10134;50.952;6.930;2023-09-12T10:13:54;7.45;;;5.13;;
19944;SDS011;10134;50.952;6.930;2023-09-12T10:16:24;6.15;;;3.72;;
19944;SDS011;10134;50.952;6.930;2023-09-12T10:18:58;4.38;;;3.17;;
19944;SDS011;10134;50.952;6.930;2023-09-12T10:21:33;6.07;;;3.58;;
19944;SDS011;10134;50.952;6.930;2023-09-12T10:24:03;6.75;;;3.72;;
19944;SDS011;10134;50.952;6.930;2023-09-12T10:26:33;5.28;;;3.55;;
19944;SDS011;10134;50.952;6.930;2023-09-12T10:29:04;6.72;;;3.00;;
19944;SDS011;10134;50.952;6.930;2023-09-12T10:31:33;4.20;;;3.15;;
19944;SDS011;10134;50.952;6.930;2023-09-12T10:34:02;5.50;;;3.50;;
19944;SDS011;10134;50.952;6.930;2023-09-12T10:36:33;5.35;;;3.10;;
19944;SDS011;10134;50.952;6.930;2023-09-12T10:39:03;4.18;;;3.03;;
19944;SDS011;10134;50.952;6.930;2023-09-12T10:41:32;5.35;;;3.60;;
19944;SDS011;10134;50.952;6.930;2023-09-12T10:44:09;6.45;;;3.97;;
19944;SDS011;10134;50.952;6.930;2023-09-12T10:46:39;6.05;;;3.60;;
19944;SDS011;10134;50.952;6.930;2023-09-12T10:49:08;4.57;;;3.67;;
19944;SDS011;10134;50.952;6.930;2023-09-12T10:51:38;6.80;;;4.10;;
19944;SDS011;10134;50.952;6.930;2023-09-12T10:54:08;7.38;;;4.15;;
19944;SDS011;10134;50.952;6.930;2023-09-12T10:56:40;4.20;;;3.08;;
19944;SDS011;10134;50.952;6.930;2023-09-12T10:59:13;5.13;;;3.90;;
19944;SDS011;10134;50.952;6.930;2023-09-12T11:01:42;4.68;;;3.72;;
19944;SDS011;10134;50.952;6.930;2023-09-12T11:04:30;5.10;;;3.33;;
19944;SDS011;10134;50.952;6.930;2023-09-12T11:07:01;7.55;;;4.65;;
19944;SDS011;10134;50.952;6.930;2023-09-12T11:12:46;7.32;;;4.20;;
19944;SDS011;10134;50.952;6.930;2023-09-12T11:15:17;6.72;;;4.72;;
19944;SDS011;10134;50.952;6.930;2023-09-12T11:17:47;7.82;;;4.10;;
19944;SDS011;10134;50.952;6.930;2023-09-12T11:20:17;4.03;;;3.42;;
19944;SDS011;10134;50.952;6.930;2023-09-12T11:22:50;5.57;;;3.90;;
19944;SDS011;10134;50.952;6.930;2023-09-12T11:25:19;7.80;;;3.83;;
19944;SDS011;10134;50.952;6.930;2023-09-12T11:30:38;6.50;;;4.50;;
19944;SDS011;10134;50.952;6.930;2023-09-12T11:33:24;4.30;;;3.42;;
19944;SDS011;10134;50.952;6.930;2023-09-12T11:35:54;5.53;;;3.70;;
19944;SDS011;10134;50.952;6.930;2023-09-12T11:38:28;7.63;;;3.60;;
19944;SDS011;10134;50.952;6.930;2023-09-12T11:40:57;6.50;;;3.67;;
19944;SDS011;10134;50.952;6.930;2023-09-12T11:43:27;2.92;;;2.58;;
19944;SDS011;10134;50.952;6.930;2023-09-12T11:45:58;6.07;;;3.95;;
19944;SDS011;10134;50.952;6.930;2023-09-12T11:48:28;11.93;;;4.90;;
19944;SDS011;10134;50.952;6.930;2023-09-12T11:50:57;5.53;;;4.55;;
19944;SDS011;10134;50.952;6.930;2023-09-12T11:53:28;4.07;;;2.92;;
19944;SDS011;10134;50.952;6.930;2023-09-12T11:55:59;7.93;;;3.83;;
19944;SDS011;10134;50.952;6.930;2023-09-12T11:58:28;3.28;;;2.85;;
19944;SDS011;10134;50.952;6.930;2023-09-12T12:00:58;5.57;;;3.35;;
19944;SDS011;10134;50.952;6.930;2023-09-12T12:03:27;5.03;;;3.53;;
19944;SDS011;10134;50.952;6.930;2023-09-12T12:05:56;7.75;;;3.95;;
19944;SDS011;10134;50.952;6.930;2023-09-12T12:08:25;5.72;;;3.38;;
19944;SDS011;10134;50.952;6.930;2023-09-12T12:10:59;6.25;;;4.25;;
19944;SDS011;10134;50.952;6.930;2023-09-12T12:13:28;5.88;;;3.53;;
19944;SDS011;10134;50.952;6.930;2023-09-12T12:15:58;7.22;;;4.13;;
19944;SDS011;10134;50.952;6.930;2023-09-12T12:18:27;5.88;;;3.08;;
19944;SDS011;10134;50.952;6.930;2023-09-12T12:20:56;5.57;;;3.45;;
19944;SDS011;10134;50.952;6.930;2023-09-12T12:23:25;5.97;;;4.00;;
19944;SDS011;10134;50.952;6.930;2023-09-12T12:25:54;5.85;;;4.18;;
19944;SDS011;10134;50.952;6.930;2023-09-12T12:28:22;4.57;;;3.65;;
19944;SDS011;10134;50.952;6.930;2023-09-12T12:30:51;4.57;;;3.80;;
19944;SDS011;10134;50.952;6.930;2023-09-12T12:33:23;7.22;;;4.47;;
19944;SDS011;10134;50.952;6.930;2023-09-12T12:36:13;5.63;;;3.83;;
19944;SDS011;10134;50.952;6.930;2023-09-12T12:38:42;5.03;;;3.83;;
19944;SDS011;10134;50.952;6.930;2023-09-12T12:41:23;4.60;;;3.60;;
19944;SDS011;10134;50.952;6.930;2023-09-12T12:43:56;4.18;;;3.65;;
19944;SDS011;10134;50.952;6.930;2023-09-12T12:46:30;6.80;;;3.78;;
19944;SDS011;10134;50.952;6.930;2023-09-12T12:49:00;6.50;;;4.05;;
19944;SDS011;10134;50.952;6.930;2023-09-12T12:51:30;10.48;;;4.03;;
19944;SDS011;10134;50.952;6.930;2023-09-12T12:54:04;4.97;;;4.03;;
19944;SDS011;10134;50.952;6.930;2023-09-12T12:56:33;12.00;;;3.88;;
19944;SDS011;10134;50.952;6.930;2023-09-12T12:59:03;4.57;;;3.60;;
19944;SDS011;10134;50.952;6.930;2023-09-12T13:01:34;4.88;;;3.83;;
19944;SDS011;10134;50.952;6.930;2023-09-12T13:04:05;6.10;;;3.47;;
19944;SDS011;10134;50.952;6.930;2023-09-12T13:06:35;7.45;;;3.70;;
19944;SDS011;10134;50.952;6.930;2023-09-12T13:09:05;3.67;;;3.33;;
19944;SDS011;10134;50.952;6.930;2023-09-12T13:11:36;5.93;;;3.67;;
19944;SDS011;10134;50.952;6.930;2023-09-12T13:14:05;7.85;;;4.15;;
19944;SDS011;10134;50.952;6.930;2023-09-12T13:16:38;3.97;;;2.88;;
19944;SDS011;10134;50.952;6.930;2023-09-12T13:19:10;4.45;;;3.35;;
19944;SDS011;10134;50.952;6.930;2023-09-12T13:21:39;6.57;;;3.85;;
19944;SDS011;10134;50.952;6.930;2023-09-12T13:24:09;8.38;;;3.80;;
19944;SDS011;10134;50.952;6.930;2023-09-12T13:26:40;7.00;;;3.45;;
19944;SDS011;10134;50.952;6.930;2023-09-12T13:29:08;5.28;;;3.95;;
19944;SDS011;10134;50.952;6.930;2023-09-12T13:31:37;5.13;;;3.35;;
19944;SDS011;10134;50.952;6.930;2023-09-12T13:34:06;4.72;;;2.95;;
19944;SDS011;10134;50.952;6.930;2023-09-12T13:36:36;4.53;;;3.38;;
19944;SDS011;10134;50.952;6.930;2023-09-12T13:39:04;6.43;;;3.63;;
19944;SDS011;10134;50.952;6.930;2023-09-12T13:41:35;5.05;;;3.05;;
19944;SDS011;10134;50.952;6.930;2023-09-12T13:44:03;5.00;;;3.35;;
19944;SDS011;10134;50.952;6.930;2023-09-12T13:46:32;7.97;;;3.72;;
19944;SDS011;10134;50.952;6.930;2023-09-12T13:49:01;5.68;;;4.32;;
19944;SDS011;10134;50.952;6.930;2023-09-12T13:51:30;4.63;;;2.78;;
19944;SDS011;10134;50.952;6.930;2023-09-12T13:54:01;5.30;;;3.63;;
19944;SDS011;10134;50.952;6.930;2023-09-12T13:56:30;6.65;;;3.05;;
19944;SDS011;10134;50.952;6.930;2023-09-12T13:58:58;6.38;;;3.40;;
19944;SDS011;10134;50.952;6.930;2023-09-12T14:01:27;3.22;;;2.72;;
19944;SDS011;10134;50.952;6.930;2023-09-12T14:04:01;5.10;;;3.60;;
19944;SDS011;10134;50.952;6.930;2023-09-12T14:06:32;7.40;;;3.47;;
19944;SDS011;10134;50.952;6.930;2023-09-12T14:09:03;3.75;;;2.90;;
19944;SDS011;10134;50.952;6.930;2023-09-12T14:11:32;5.38;;;3.15;;
19944;SDS011;10134;50.952;6.930;2023-09-12T14:14:03;6.13;;;3.80;;
19944;SDS011;10134;50.952;6.930;2023-09-12T14:16:35;5.38;;;3.78;;
19944;SDS011;10134;50.952;6.930;2023-09-12T14:19:04;3.50;;;3.20;;
19944;SDS011;10134;50.952;6.930;2023-09-12T14:21:33;5.95;;;3.58;;
19944;SDS011;10134;50.952;6.930;2023-09-12T14:24:06;4.53;;;3.03;;
19944;SDS011;10134;50.952;6.930;2023-09-12T14:26:36;5.60;;;2.95;;
19944;SDS011;10134;50.952;6.930;2023-09-12T14:29:05;3.80;;;2.88;;
19944;SDS011;10134;50.952;6.930;2023-09-12T14:31:35;6.65;;;3.67;;
19944;SDS011;10134;50.952;6.930;2023-09-12T14:34:05;4.32;;;3.20;;
19944;SDS011;10134;50.952;6.930;2023-09-12T14:36:35;4.65;;;2.95;;
19944;SDS011;10134;50.952;6.930;2023-09-12T14:39:04;4.78;;;3.35;;
19944;SDS011;10134;50.952;6.930;2023-09-12T14:41:34;3.30;;;2.85;;
19944;SDS011;10134;50.952;6.930;2023-09-12T14:44:03;3.67;;;3.00;;
19944;SDS011;10134;50.952;6.930;2023-09-12T14:46:33;4.63;;;3.53;;
19944;SDS011;10134;50.952;6.930;2023-09-12T14:49:03;6.50;;;3.15;;
19944;SDS011;10134;50.952;6.930;2023-09-12T14:51:32;3.40;;;3.10;;
19944;SDS011;10134;50.952;6.930;2023-09-12T14:54:01;5.45;;;3.33;;
19944;SDS011;10134;50.952;6.930;2023-09-12T14:56:34;4.25;;;3.35;;
19944;SDS011;10134;50.952;6.930;2023-09-12T14:59:04;4.25;;;2.92;;
19944;SDS011;10134;50.952;6.930;2023-09-12T15:01:33;4.47;;;3.60;;
19944;SDS011;10134;50.952;6.930;2023-09-12T15:04:02;5.70;;;3.10;;
19944;SDS011;10134;50.952;6.930;2023-09-12T15:06:33;4.07;;;3.10;;
19944;SDS011;10134;50.952;6.930;2023-09-12T15:09:02;4.90;;;2.78;;